createdAt,value
2024-01-05T00:02:23.621Z,0.60
2024-01-05T00:04:53.570Z,0.70
2024-01-05T00:07:22.867Z,0.80
2024-01-05T00:09:52.077Z,0.60
2024-01-05T00:12:21.912Z,0.60
2024-01-05T00:14:51.295Z,0.70
2024-01-05T00:17:20.960Z,0.70
2024-01-05T00:19:51.275Z,0.70
2024-01-05T00:22:21.472Z,0.50
2024-01-05T00:24:50.184Z,0.40
2024-01-05T00:27:20.794Z,0.70
2024-01-05T00:29:50.096Z,0.60
2024-01-05T00:32:19.876Z,0.40
2024-01-05T00:34:49.769Z,0.60
2024-01-05T00:37:19.016Z,0.70
2024-01-05T00:39:48.750Z,0.50
2024-01-05T00:42:18.154Z,0.60
2024-01-05T00:44:47.158Z,0.80
2024-01-05T00:47:17.563Z,0.70
2024-01-05T00:49:48.045Z,0.60
2024-01-05T00:52:21.238Z,0.50
2024-01-05T00:54:50.274Z,0.60
2024-01-05T00:57:19.660Z,0.70
2024-01-05T00:59:49.186Z,0.50
2024-01-05T01:02:18.457Z,0.50
2024-01-05T01:04:47.741Z,0.40
2024-01-05T01:07:16.934Z,0.50
2024-01-05T01:09:46.698Z,0.60
2024-01-05T01:12:15.384Z,0.50
2024-01-05T01:14:44.900Z,0.50
2024-01-05T01:17:14.337Z,0.70
2024-01-05T01:19:44.048Z,0.70
2024-01-05T01:22:13.353Z,0.80
2024-01-05T01:24:42.997Z,0.50
2024-01-05T01:27:12.953Z,0.50
2024-01-05T01:29:42.821Z,0.50
2024-01-05T01:32:11.434Z,0.60
2024-01-05T01:34:40.859Z,0.50
2024-01-05T01:37:10.240Z,0.70
2024-01-05T01:39:39.082Z,0.60
2024-01-05T01:42:08.378Z,0.30
2024-01-05T01:44:38.384Z,0.50
2024-01-05T01:47:07.342Z,0.50
2024-01-05T01:49:38.145Z,0.50
2024-01-05T01:52:08.393Z,0.60
2024-01-05T01:54:39.191Z,0.60
2024-01-05T01:57:09.993Z,0.60
2024-01-05T01:59:42.662Z,0.60
2024-01-05T02:02:13.839Z,1.10
2024-01-05T02:04:44.490Z,0.90
2024-01-05T02:07:14.023Z,0.60
2024-01-05T02:09:42.536Z,0.80
2024-01-05T02:12:11.992Z,0.90
2024-01-05T02:14:42.073Z,0.70
2024-01-05T02:17:34.478Z,0.50
2024-01-05T02:20:03.549Z,0.70
2024-01-05T02:22:36.368Z,0.90
2024-01-05T02:25:05.727Z,1.20
2024-01-05T02:27:34.853Z,0.90
2024-01-05T02:30:04.674Z,0.60
2024-01-05T02:32:34.250Z,0.60
2024-01-05T02:35:04.577Z,0.90
2024-01-05T02:37:33.816Z,0.50
2024-01-05T02:40:03.698Z,0.50
2024-01-05T02:42:32.941Z,0.70
2024-01-05T02:45:02.178Z,0.70
2024-01-05T02:47:32.583Z,1.00
2024-01-05T02:50:05.287Z,1.10
2024-01-05T02:52:34.819Z,0.90
2024-01-05T02:55:04.048Z,1.30
2024-01-05T02:57:35.212Z,0.80
2024-01-05T03:00:04.754Z,1.10
2024-01-05T03:02:33.959Z,1.00
2024-01-05T03:05:07.064Z,0.80
2024-01-05T03:07:36.613Z,1.00
2024-01-05T03:10:05.664Z,0.70
2024-01-05T03:12:35.149Z,0.90
2024-01-05T03:15:05.382Z,0.80
2024-01-05T03:17:34.309Z,0.90
2024-01-05T03:20:04.586Z,0.60
2024-01-05T03:22:34.715Z,1.20
2024-01-05T03:25:04.585Z,0.70
2024-01-05T03:27:33.984Z,0.80
2024-01-05T03:30:02.832Z,0.80
2024-01-05T03:32:32.108Z,0.80
2024-01-05T03:35:02.971Z,1.00
2024-01-05T03:37:32.473Z,0.70
2024-01-05T03:40:02.233Z,1.00
2024-01-05T03:42:31.376Z,0.40
2024-01-05T03:45:01.815Z,0.90
2024-01-05T03:47:31.184Z,1.00
2024-01-05T03:50:01.104Z,0.70
2024-01-05T03:52:32.220Z,1.20
2024-01-05T03:55:02.989Z,1.00
2024-01-05T03:57:32.683Z,1.10
2024-01-05T04:00:02.082Z,0.70
2024-01-05T04:02:34.073Z,0.60
2024-01-05T04:05:03.453Z,0.80
2024-01-05T04:07:32.651Z,0.80
2024-01-05T04:10:02.218Z,0.70
2024-01-05T04:12:32.489Z,0.50
2024-01-05T04:15:02.313Z,0.50
2024-01-05T04:17:31.112Z,0.70
2024-01-05T04:19:59.453Z,0.50
2024-01-05T04:22:32.382Z,0.40
2024-01-05T04:25:01.915Z,0.30
2024-01-05T04:27:31.059Z,0.50
2024-01-05T04:29:59.865Z,0.80
2024-01-05T04:32:28.809Z,0.70
2024-01-05T04:34:57.812Z,0.40
2024-01-05T04:37:27.424Z,0.80
2024-01-05T04:39:56.216Z,0.50
2024-01-05T04:42:28.116Z,0.60
2024-01-05T04:44:57.543Z,1.90
2024-01-05T04:47:26.454Z,1.70
2024-01-05T04:49:55.521Z,1.40
2024-01-05T04:52:25.736Z,1.10
2024-01-05T04:54:54.900Z,0.40
2024-01-05T04:57:24.175Z,0.50
2024-01-05T04:59:55.475Z,0.50
2024-01-05T05:02:24.761Z,1.20
2024-01-05T05:04:54.392Z,0.80
2024-01-05T05:07:25.807Z,0.80
2024-01-05T05:09:55.850Z,0.50
2024-01-05T05:12:25.613Z,0.80
2024-01-05T05:14:55.318Z,0.50
2024-01-05T05:17:24.368Z,0.70
2024-01-05T05:19:56.448Z,0.60
2024-01-05T05:22:26.720Z,1.00
2024-01-05T05:24:55.971Z,0.60
2024-01-05T05:27:25.609Z,0.30
2024-01-05T05:29:54.611Z,0.60
2024-01-05T05:32:23.631Z,0.50
2024-01-05T05:34:54.187Z,0.70
2024-01-05T05:37:23.699Z,0.50
2024-01-05T05:39:52.820Z,0.50
2024-01-05T05:42:23.425Z,0.30
2024-01-05T05:44:52.425Z,0.50
2024-01-05T05:47:21.228Z,0.50
2024-01-05T05:49:50.792Z,0.60
2024-01-05T05:52:20.391Z,0.70
2024-01-05T05:54:50.218Z,0.70
2024-01-05T05:57:20.717Z,0.80
2024-01-05T05:59:51.808Z,0.60
2024-01-05T06:02:21.795Z,0.50
2024-01-05T06:04:51.716Z,0.60
2024-01-05T06:07:20.563Z,0.60
2024-01-05T06:09:49.513Z,0.60
2024-01-05T06:12:19.425Z,0.60
2024-01-05T06:14:49.348Z,0.40
2024-01-05T06:17:20.804Z,0.50
2024-01-05T06:19:50.020Z,0.50
2024-01-05T06:22:19.829Z,0.80
2024-01-05T06:24:49.029Z,0.60
2024-01-05T06:27:22.350Z,0.70
2024-01-05T06:29:58.301Z,0.60
2024-01-05T06:32:27.691Z,0.30
2024-01-05T06:34:57.410Z,0.90
2024-01-05T06:37:27.018Z,0.60
2024-01-05T06:40:03.041Z,0.60
2024-01-05T06:42:32.861Z,0.50
2024-01-05T06:45:02.629Z,0.50
2024-01-05T06:47:31.172Z,0.40
2024-01-05T06:50:00.220Z,1.30
2024-01-05T06:52:30.364Z,0.70
2024-01-05T06:55:01.161Z,0.40
2024-01-05T06:57:33.609Z,0.80
2024-01-05T07:00:07.657Z,0.80
2024-01-05T07:02:39.049Z,0.60
2024-01-05T07:05:10.470Z,0.60
2024-01-05T07:07:43.327Z,0.60
2024-01-05T07:10:12.837Z,0.50
2024-01-05T07:12:43.560Z,0.90
2024-01-05T07:15:13.527Z,1.10
2024-01-05T07:17:45.270Z,0.90
2024-01-05T07:20:14.788Z,0.70
2024-01-05T07:22:44.767Z,0.70
2024-01-05T07:25:14.906Z,0.70
2024-01-05T07:27:43.262Z,0.80
2024-01-05T07:30:15.002Z,0.70
2024-01-05T07:32:47.013Z,0.70
2024-01-05T07:35:17.787Z,0.90
2024-01-05T07:37:48.489Z,1.00
2024-01-05T07:40:18.214Z,0.70
2024-01-05T07:42:47.510Z,0.70
2024-01-05T07:45:17.369Z,0.70
2024-01-05T07:47:49.753Z,1.00
2024-01-05T07:50:20.091Z,0.60
2024-01-05T07:52:50.149Z,0.90
2024-01-05T07:55:19.868Z,0.70
2024-01-05T07:57:48.962Z,0.80
2024-01-05T08:00:19.879Z,0.70
2024-01-05T08:02:52.223Z,0.40
2024-01-05T08:05:22.767Z,1.10
2024-01-05T08:07:52.008Z,0.80
2024-01-05T08:10:22.925Z,0.80
2024-01-05T08:12:51.941Z,0.70
2024-01-05T08:15:22.747Z,0.70
2024-01-05T08:17:51.696Z,0.80
2024-01-05T08:20:22.347Z,0.30
2024-01-05T08:22:51.586Z,0.50
2024-01-05T08:25:22.749Z,0.50
2024-01-05T08:27:53.919Z,0.90
2024-01-05T08:30:22.720Z,0.60
2024-01-05T08:32:56.775Z,0.90
2024-01-05T08:35:25.977Z,0.70
2024-01-05T08:37:54.945Z,0.70
2024-01-05T08:40:27.474Z,0.80
2024-01-05T08:42:56.911Z,0.80
2024-01-05T08:45:29.332Z,1.10
2024-01-05T08:47:59.301Z,0.90
2024-01-05T08:50:28.608Z,1.00
2024-01-05T08:52:58.883Z,0.90
2024-01-05T08:55:28.218Z,0.80
2024-01-05T08:58:00.097Z,1.00
2024-01-05T09:00:30.247Z,0.70
2024-01-05T09:02:59.995Z,0.80
2024-01-05T09:05:30.964Z,0.90
2024-01-05T09:08:01.213Z,0.80
2024-01-05T09:10:34.524Z,0.70
2024-01-05T09:13:03.592Z,0.80
2024-01-05T09:15:33.662Z,0.70
2024-01-05T09:18:07.084Z,1.00
2024-01-05T09:20:35.850Z,0.90
2024-01-05T09:23:08.104Z,0.50
2024-01-05T09:25:39.649Z,0.50
2024-01-05T09:28:10.714Z,0.50
2024-01-05T09:30:40.647Z,0.30
2024-01-05T09:33:09.550Z,0.30
2024-01-05T09:35:38.380Z,0.30
2024-01-05T09:38:07.779Z,0.40
2024-01-05T09:40:37.674Z,0.30
2024-01-05T09:43:09.935Z,0.40
2024-01-05T09:45:40.404Z,0.30
2024-01-05T09:48:12.145Z,0.40
2024-01-05T09:50:44.460Z,0.30
2024-01-05T09:53:15.172Z,0.40
2024-01-05T09:55:44.371Z,0.50
2024-01-05T09:58:16.237Z,0.70
2024-01-05T10:00:49.421Z,0.50
2024-01-05T10:03:24.442Z,0.40
2024-01-05T10:05:55.245Z,0.30
2024-01-05T10:08:24.872Z,0.50
2024-01-05T10:10:58.083Z,0.20
2024-01-05T10:13:26.936Z,0.20
2024-01-05T10:15:58.026Z,0.40
2024-01-05T10:18:29.656Z,0.70
2024-01-05T10:21:10.495Z,0.60
2024-01-05T10:23:44.789Z,0.50
2024-01-05T10:26:20.296Z,0.60
2024-01-05T10:28:50.883Z,0.50
2024-01-05T10:31:20.497Z,0.30
2024-01-05T10:33:54.341Z,0.30
2024-01-05T10:38:53.474Z,0.40
2024-01-05T10:41:24.530Z,0.60
2024-01-05T10:43:55.805Z,0.40
2024-01-05T10:46:26.279Z,1.00
2024-01-05T10:48:58.634Z,0.60
2024-01-05T10:51:28.959Z,0.50
2024-01-05T10:53:58.394Z,0.50
2024-01-05T10:56:30.689Z,0.20
2024-01-05T10:59:00.701Z,0.40
2024-01-05T11:01:32.830Z,0.40
2024-01-05T11:04:04.527Z,0.40
2024-01-05T11:06:36.266Z,0.10
2024-01-05T11:09:18.760Z,0.30
2024-01-05T11:11:56.488Z,0.80
2024-01-05T11:15:18.605Z,0.60
2024-01-05T11:18:28.247Z,0.30
2024-01-05T11:21:14.848Z,0.20
2024-01-05T11:23:45.007Z,0.20
2024-01-05T11:26:37.572Z,0.60
2024-01-05T11:29:06.640Z,0.30
2024-01-05T11:31:54.514Z,0.30
2024-01-05T11:34:37.873Z,0.40
2024-01-05T11:37:07.436Z,0.30
2024-01-05T11:39:51.645Z,0.20
2024-01-05T11:42:30.579Z,0.40
2024-01-05T11:45:04.431Z,0.30
2024-01-05T11:47:48.079Z,0.70
2024-01-05T11:50:30.179Z,0.40
2024-01-05T11:53:08.096Z,0.60
2024-01-05T11:55:41.799Z,0.70
2024-01-05T11:58:16.530Z,0.30
2024-01-05T12:00:48.081Z,0.50
2024-01-05T12:03:18.953Z,0.50
2024-01-05T12:05:51.246Z,0.30
2024-01-05T12:08:24.137Z,0.40
2024-01-05T12:10:56.759Z,0.40
2024-01-05T12:13:30.652Z,0.20
2024-01-05T12:16:03.914Z,0.30
2024-01-05T12:18:38.384Z,0.30
2024-01-05T12:21:15.023Z,0.20
2024-01-05T12:23:57.894Z,0.00
2024-01-05T12:26:30.547Z,0.50
2024-01-05T12:28:59.429Z,0.40
2024-01-05T12:31:28.777Z,0.40
2024-01-05T12:33:58.271Z,0.50
2024-01-05T12:36:33.058Z,0.50
2024-01-05T12:39:13.550Z,0.50
2024-01-05T12:41:47.499Z,0.30
2024-01-05T12:44:17.529Z,0.10
2024-01-05T12:46:49.127Z,0.40
2024-01-05T12:49:24.018Z,0.50
2024-01-05T12:51:54.659Z,0.90
2024-01-05T12:54:26.910Z,0.50
2024-01-05T12:56:57.075Z,0.40
2024-01-05T12:59:26.578Z,0.70
2024-01-05T13:02:01.657Z,0.80
2024-01-05T13:04:38.252Z,0.80
2024-01-05T13:07:12.710Z,0.60
2024-01-05T13:09:42.536Z,0.70
2024-01-05T13:12:12.516Z,0.80
2024-01-05T13:14:41.740Z,0.60
2024-01-05T13:17:10.974Z,0.90
2024-01-05T13:19:49.296Z,1.00
2024-01-05T13:22:17.821Z,0.70
2024-01-05T13:24:49.305Z,0.90
2024-01-05T13:27:19.448Z,0.80
2024-01-05T13:29:51.121Z,1.00
2024-01-05T13:32:21.942Z,0.80
2024-01-05T13:34:52.072Z,1.10
2024-01-05T13:37:25.171Z,0.60
2024-01-05T13:39:54.707Z,0.70
2024-01-05T13:42:26.591Z,0.70
2024-01-05T13:44:57.162Z,1.00
2024-01-05T13:47:28.993Z,0.80
2024-01-05T13:49:57.996Z,1.00
2024-01-05T13:52:28.694Z,1.10
2024-01-05T13:54:59.185Z,1.00
2024-01-05T13:57:29.128Z,1.20
2024-01-05T13:59:59.146Z,0.90
2024-01-05T14:02:29.272Z,0.80
2024-01-05T14:05:00.665Z,0.80
2024-01-05T14:07:30.518Z,1.10
2024-01-05T14:10:01.410Z,1.00
2024-01-05T14:12:32.765Z,0.80
2024-01-05T14:15:05.333Z,1.30
2024-01-05T14:17:35.013Z,1.70
2024-01-05T14:20:10.237Z,1.80
2024-01-05T14:25:10.189Z,1.60
2024-01-05T14:27:40.581Z,1.40
2024-01-05T14:30:09.912Z,1.10
2024-01-05T14:32:39.130Z,0.70
2024-01-05T14:35:09.136Z,0.70
2024-01-05T14:37:40.435Z,0.90
2024-01-05T14:40:12.741Z,2.50
2024-01-05T14:42:41.676Z,2.20
2024-01-05T14:45:12.026Z,3.00
2024-01-05T14:47:43.017Z,2.30
2024-01-05T14:50:12.704Z,2.10
2024-01-05T14:52:52.310Z,2.20
2024-01-05T14:55:29.628Z,1.90
2024-01-05T14:57:59.280Z,2.30
2024-01-05T15:00:28.073Z,1.90
2024-01-05T15:03:00.082Z,2.40
2024-01-05T15:05:29.183Z,2.10
2024-01-05T15:07:58.524Z,2.90
2024-01-05T15:10:29.015Z,4.20
2024-01-05T15:13:01.013Z,3.50
2024-01-05T15:15:30.315Z,4.30
2024-01-05T15:18:00.890Z,3.70
2024-01-05T15:20:30.373Z,3.30
2024-01-05T15:22:59.669Z,3.40
2024-01-05T15:25:32.797Z,3.00
2024-01-05T15:28:01.910Z,3.10
2024-01-05T15:30:31.894Z,3.30
2024-01-05T15:33:01.512Z,3.10
2024-01-05T15:35:35.788Z,2.90
2024-01-05T15:38:07.852Z,3.80
2024-01-05T15:40:38.894Z,5.90
2024-01-05T15:43:08.936Z,5.60
2024-01-05T15:45:39.798Z,6.90
2024-01-05T15:48:11.956Z,4.30
2024-01-05T15:50:41.815Z,4.90
2024-01-05T15:53:10.523Z,4.00
2024-01-05T15:55:41.368Z,4.10
2024-01-05T15:58:12.889Z,3.80
2024-01-05T16:00:46.923Z,4.10
2024-01-05T16:03:17.923Z,4.40
2024-01-05T16:05:46.956Z,3.60
2024-01-05T16:08:17.945Z,3.50
2024-01-05T16:10:48.682Z,4.10
2024-01-05T16:13:19.395Z,3.60
2024-01-05T16:15:51.428Z,3.60
2024-01-05T16:18:23.085Z,4.20
2024-01-05T16:20:52.874Z,4.70
2024-01-05T16:23:22.978Z,3.80
2024-01-05T16:25:53.409Z,4.00
2024-01-05T16:28:24.964Z,4.90
2024-01-05T16:30:54.664Z,3.80
2024-01-05T16:33:25.089Z,3.20
2024-01-05T16:35:55.085Z,4.00
2024-01-05T16:38:24.591Z,4.30
2024-01-05T16:40:55.780Z,4.50
2024-01-05T16:43:25.579Z,5.60
2024-01-05T16:45:55.976Z,5.70
2024-01-05T16:48:28.023Z,3.90
2024-01-05T16:50:57.325Z,3.10
2024-01-05T16:53:29.715Z,4.00
2024-01-05T16:56:00.111Z,3.20
2024-01-05T16:58:29.131Z,3.20
2024-01-05T17:00:58.393Z,3.30
2024-01-05T17:03:30.058Z,5.40
2024-01-05T17:05:59.250Z,6.30
2024-01-05T17:08:29.096Z,4.90
2024-01-05T17:10:59.530Z,3.80
2024-01-05T17:13:29.186Z,3.50
2024-01-05T17:15:58.631Z,3.70
2024-01-05T17:18:28.594Z,5.80
2024-01-05T17:20:58.970Z,7.80
2024-01-05T17:23:28.736Z,6.10
2024-01-05T17:26:00.925Z,7.40
2024-01-05T17:28:30.444Z,5.90
2024-01-05T17:30:59.620Z,5.80
2024-01-05T17:33:29.441Z,4.80
2024-01-05T17:35:59.733Z,7.90
2024-01-05T17:38:29.011Z,6.70
2024-01-05T17:40:59.024Z,7.90
2024-01-05T17:43:28.132Z,7.10
2024-01-05T17:46:05.385Z,6.00
2024-01-05T17:48:34.739Z,7.50
2024-01-05T17:51:04.353Z,7.70
2024-01-05T17:53:34.509Z,6.70
2024-01-05T17:56:02.994Z,6.30
2024-01-05T17:58:32.403Z,7.50
2024-01-05T18:01:07.153Z,12.10
2024-01-05T18:03:39.588Z,12.10
2024-01-05T18:06:10.767Z,12.80
2024-01-05T18:08:39.577Z,12.70
2024-01-05T18:11:10.404Z,12.40
2024-01-05T18:13:40.358Z,12.50
2024-01-05T18:16:09.686Z,13.00
2024-01-05T18:18:41.398Z,11.60
2024-01-05T18:21:10.705Z,12.10
2024-01-05T18:23:41.629Z,11.70
2024-01-05T18:26:17.451Z,12.60
2024-01-05T18:28:47.607Z,13.20
2024-01-05T18:31:32.050Z,13.80
2024-01-05T18:34:01.502Z,11.70
2024-01-05T18:36:30.524Z,14.10
2024-01-05T18:38:59.616Z,13.90
2024-01-05T18:41:32.132Z,18.20
2024-01-05T18:44:03.071Z,21.30
2024-01-05T18:46:33.633Z,39.10
2024-01-05T18:49:04.362Z,26.90
2024-01-05T18:51:36.831Z,49.30
2024-01-05T18:54:11.196Z,32.20
2024-01-05T18:56:41.490Z,44.10
2024-01-05T18:59:12.367Z,29.80
2024-01-05T19:01:42.586Z,28.40
2024-01-05T19:04:13.200Z,29.60
2024-01-05T19:06:44.361Z,28.80
2024-01-05T19:09:14.889Z,28.40
2024-01-05T19:11:44.554Z,25.70
2024-01-05T19:14:15.536Z,25.40
2024-01-05T19:16:46.068Z,23.70
2024-01-05T19:19:17.869Z,17.10
2024-01-05T19:21:55.918Z,14.00
2024-01-05T19:24:29.543Z,13.90
2024-01-05T19:26:59.852Z,17.40
2024-01-05T19:29:31.128Z,16.60
2024-01-05T19:32:00.058Z,16.30
2024-01-05T19:34:30.742Z,17.60
2024-01-05T19:36:59.495Z,17.60
2024-01-05T19:39:30.149Z,18.20
2024-01-05T19:42:01.413Z,15.80
2024-01-05T19:44:30.582Z,15.90
2024-01-05T19:47:01.146Z,19.00
2024-01-05T19:49:30.903Z,18.70
2024-01-05T19:52:01.049Z,17.00
2024-01-05T19:54:31.055Z,18.20
2024-01-05T19:57:01.446Z,19.00
2024-01-05T19:59:31.896Z,21.60
2024-01-05T20:02:02.768Z,18.20
2024-01-05T20:04:33.332Z,19.30
2024-01-05T20:07:04.757Z,16.00
2024-01-05T20:09:34.238Z,17.60
2024-01-05T20:12:06.293Z,17.00
2024-01-05T20:14:36.292Z,16.60
2024-01-05T20:17:05.483Z,16.80
2024-01-05T20:19:35.172Z,14.60
2024-01-05T20:22:07.208Z,16.60
2024-01-05T20:24:36.003Z,15.70
2024-01-05T20:27:07.802Z,19.50
2024-01-05T20:29:41.279Z,19.30
2024-01-05T20:32:12.041Z,19.50
2024-01-05T20:34:41.446Z,18.40
2024-01-05T20:37:11.414Z,15.00
2024-01-05T20:39:41.626Z,17.80
2024-01-05T20:42:11.643Z,15.30
2024-01-05T20:44:45.676Z,15.70
2024-01-05T20:47:14.848Z,16.80
2024-01-05T20:49:44.701Z,14.90
2024-01-05T20:52:15.322Z,17.50
2024-01-05T20:54:45.273Z,18.80
2024-01-05T20:57:15.616Z,16.90
2024-01-05T20:59:45.994Z,10.70
2024-01-05T21:02:14.984Z,19.00
2024-01-05T21:04:48.308Z,15.30
2024-01-05T21:07:18.163Z,18.50
2024-01-05T21:09:50.272Z,16.80
2024-01-05T21:12:21.448Z,15.90
2024-01-05T21:14:51.160Z,13.60
2024-01-05T21:17:21.090Z,15.20
2024-01-05T21:19:50.098Z,14.60
2024-01-05T21:22:21.575Z,15.80
2024-01-05T21:24:53.323Z,15.90
2024-01-05T21:27:22.510Z,16.10
2024-01-05T21:29:52.317Z,14.10
2024-01-05T21:32:24.336Z,13.90
2024-01-05T21:34:58.538Z,13.50
2024-01-05T21:37:28.452Z,12.30
2024-01-05T21:39:58.346Z,14.10
2024-01-05T21:42:28.642Z,15.10
2024-01-05T21:44:59.046Z,16.30
2024-01-05T21:47:30.217Z,16.10
2024-01-05T21:50:00.850Z,13.50
2024-01-05T21:52:30.746Z,15.90
2024-01-05T21:55:00.344Z,14.40
2024-01-05T21:57:31.702Z,15.20
2024-01-05T22:00:02.800Z,13.30
2024-01-05T22:02:36.153Z,14.20
2024-01-05T22:05:05.650Z,13.60
2024-01-05T22:07:35.665Z,13.60
2024-01-05T22:10:05.868Z,14.70
2024-01-05T22:12:36.336Z,13.50
2024-01-05T22:15:08.547Z,19.20
2024-01-05T22:17:38.170Z,15.80
2024-01-05T22:20:11.448Z,18.70
2024-01-05T22:22:40.715Z,17.00
2024-01-05T22:25:13.278Z,18.70
2024-01-05T22:27:42.097Z,17.00
2024-01-05T22:30:12.470Z,17.10
2024-01-05T22:32:44.594Z,14.60
2024-01-05T22:35:15.034Z,17.90
2024-01-05T22:37:44.199Z,14.60
2024-01-05T22:40:15.749Z,16.40
2024-01-05T22:42:46.332Z,16.30
2024-01-05T22:45:16.211Z,13.90
2024-01-05T22:47:51.093Z,14.90
2024-01-05T22:50:20.893Z,15.50
2024-01-05T22:52:50.256Z,13.10
2024-01-05T22:55:21.483Z,13.50
2024-01-05T22:57:50.748Z,12.30
2024-01-05T23:00:22.925Z,12.70
2024-01-05T23:02:52.560Z,11.10
2024-01-05T23:05:23.349Z,12.30
2024-01-05T23:07:52.829Z,11.60
2024-01-05T23:10:22.937Z,10.10
2024-01-05T23:12:53.158Z,10.30
2024-01-05T23:15:22.591Z,9.50
2024-01-05T23:17:53.676Z,10.40
2024-01-05T23:20:22.610Z,9.30
2024-01-05T23:22:52.746Z,8.60
2024-01-05T23:25:22.668Z,10.60
2024-01-05T23:27:52.789Z,9.90
2024-01-05T23:30:22.347Z,8.80
2024-01-05T23:32:52.704Z,9.90
2024-01-05T23:35:21.870Z,11.00
2024-01-05T23:37:51.060Z,11.00
2024-01-05T23:40:19.452Z,10.80
2024-01-05T23:42:49.939Z,11.40
2024-01-05T23:45:21.282Z,9.50
2024-01-05T23:47:52.920Z,7.50
2024-01-05T23:50:21.783Z,7.70
2024-01-05T23:52:51.203Z,8.40
2024-01-05T23:55:21.636Z,8.10
2024-01-05T23:57:50.999Z,9.60
